createdAt,value
2022-12-15T00:00:03.046Z,-2.55
2022-12-15T00:03:08.053Z,-2.53
2022-12-15T00:06:11.519Z,-2.49
2022-12-15T00:09:16.133Z,-2.45
2022-12-15T00:12:20.819Z,-2.40
2022-12-15T00:15:24.198Z,-2.33
2022-12-15T00:18:27.540Z,-2.30
2022-12-15T00:21:30.895Z,-2.23
2022-12-15T00:24:34.296Z,-2.16
2022-12-15T00:27:37.845Z,-2.09
2022-12-15T00:30:41.271Z,-2.01
2022-12-15T00:33:44.756Z,-1.95
2022-12-15T00:36:49.830Z,-1.91
2022-12-15T00:39:34.978Z,-1.82
2022-12-15T00:42:19.870Z,-1.76
2022-12-15T00:45:04.994Z,-1.72
2022-12-15T00:47:49.784Z,-1.68
2022-12-15T00:50:52.452Z,-1.66
2022-12-15T00:53:56.346Z,-1.60
2022-12-15T00:56:59.729Z,-1.57
2022-12-15T01:00:03.306Z,-1.55
2022-12-15T01:03:07.013Z,-1.50
2022-12-15T01:06:10.190Z,-1.47
2022-12-15T01:09:14.178Z,-1.39
2022-12-15T01:12:17.534Z,-1.40
2022-12-15T01:15:21.011Z,-1.39
2022-12-15T01:18:24.356Z,-1.36
2022-12-15T01:21:10.767Z,-1.31
2022-12-15T01:23:55.542Z,-1.33
2022-12-15T01:26:40.935Z,-1.28
2022-12-15T01:29:25.739Z,-1.25
2022-12-15T01:32:10.332Z,-1.27
2022-12-15T01:34:55.208Z,-1.26
2022-12-15T01:37:40.342Z,-1.20
2022-12-15T01:40:43.826Z,-1.19
2022-12-15T01:43:34.991Z,-1.17
2022-12-15T01:46:22.757Z,-1.18
2022-12-15T01:49:28.877Z,-1.16
2022-12-15T01:52:15.941Z,-1.13
2022-12-15T01:55:01.207Z,-1.18
2022-12-15T01:57:46.506Z,-1.11
2022-12-15T02:00:32.063Z,-1.14
2022-12-15T02:03:18.066Z,-1.10
2022-12-15T02:06:03.451Z,-1.09
2022-12-15T02:08:52.432Z,-1.10
2022-12-15T02:11:59.110Z,-1.07
2022-12-15T02:15:20.630Z,-1.05
2022-12-15T02:18:29.956Z,-1.04
2022-12-15T02:21:19.273Z,-1.03
2022-12-15T02:24:19.536Z,-1.03
2022-12-15T02:27:29.310Z,-1.06
2022-12-15T02:30:25.881Z,-1.10
2022-12-15T02:33:17.381Z,-1.14
2022-12-15T02:36:15.419Z,-1.16
2022-12-15T02:39:01.141Z,-1.19
2022-12-15T02:41:47.214Z,-1.23
2022-12-15T02:44:40.936Z,-1.25
2022-12-15T02:47:45.475Z,-1.25
2022-12-15T02:50:41.973Z,-1.33
2022-12-15T02:54:02.945Z,-1.30
2022-12-15T02:57:05.348Z,-1.33
2022-12-15T03:00:53.075Z,-1.31
2022-12-15T03:03:39.600Z,-1.32
2022-12-15T03:06:26.159Z,-1.34
2022-12-15T03:09:11.897Z,-1.36
2022-12-15T03:11:56.922Z,-1.35
2022-12-15T03:14:41.613Z,-1.31
2022-12-15T03:17:26.403Z,-1.32
2022-12-15T03:20:11.983Z,-1.33
2022-12-15T03:22:56.577Z,-1.30
2022-12-15T03:25:44.258Z,-1.31
2022-12-15T03:28:28.904Z,-1.32
2022-12-15T03:31:13.839Z,-1.27
2022-12-15T03:33:59.435Z,-1.27
2022-12-15T03:36:43.860Z,-1.26
2022-12-15T03:39:29.258Z,-1.27
2022-12-15T03:42:13.855Z,-1.26
2022-12-15T03:44:58.752Z,-1.20
2022-12-15T03:47:44.043Z,-1.21
2022-12-15T03:50:29.585Z,-1.18
2022-12-15T03:53:14.539Z,-1.17
2022-12-15T03:55:59.620Z,-1.18
2022-12-15T03:58:44.248Z,-1.14
2022-12-15T04:01:34.311Z,-1.15
2022-12-15T04:04:19.200Z,-1.14
2022-12-15T04:07:04.095Z,-1.11
2022-12-15T04:09:48.584Z,-1.11
2022-12-15T04:12:33.746Z,-1.08
2022-12-15T04:15:18.496Z,-1.07
2022-12-15T04:18:06.532Z,-1.05
2022-12-15T04:20:51.110Z,-1.02
2022-12-15T04:23:37.128Z,-0.98
2022-12-15T04:26:40.625Z,-0.96
2022-12-15T04:29:43.987Z,-0.97
2022-12-15T04:32:49.745Z,-0.95
2022-12-15T04:35:53.874Z,-0.93
2022-12-15T04:38:58.028Z,-0.92
2022-12-15T04:42:01.922Z,-0.90
2022-12-15T04:45:07.565Z,-0.85
2022-12-15T04:48:10.917Z,-0.86
2022-12-15T04:51:14.473Z,-0.80
2022-12-15T04:54:17.874Z,-0.78
2022-12-15T04:57:21.170Z,-0.79
2022-12-15T05:00:25.020Z,-0.76
2022-12-15T05:03:28.675Z,-0.75
2022-12-15T05:06:31.906Z,-0.74
2022-12-15T05:09:35.337Z,-0.70
2022-12-15T05:12:38.487Z,-0.71
2022-12-15T05:15:41.892Z,-0.65
2022-12-15T05:18:45.466Z,-0.64
2022-12-15T05:21:48.875Z,-0.60
2022-12-15T05:24:52.390Z,-0.58
2022-12-15T05:27:56.026Z,-0.53
2022-12-15T05:30:59.213Z,-0.53
2022-12-15T05:33:43.977Z,-0.49
2022-12-15T05:36:28.817Z,-0.45
2022-12-15T05:39:14.187Z,-0.42
2022-12-15T05:41:58.957Z,-0.44
2022-12-15T05:44:44.191Z,-0.42
2022-12-15T05:47:28.928Z,-0.36
2022-12-15T05:50:13.773Z,-0.34
2022-12-15T05:52:58.641Z,-0.32
2022-12-15T05:55:43.339Z,-0.30
2022-12-15T05:58:28.295Z,-0.30
2022-12-15T06:01:17.541Z,-0.27
2022-12-15T06:04:02.677Z,-0.26
2022-12-15T06:06:47.274Z,-0.23
2022-12-15T06:09:32.597Z,-0.24
2022-12-15T06:12:17.641Z,-0.25
2022-12-15T06:15:02.298Z,-0.21
2022-12-15T06:17:49.580Z,-0.21
2022-12-15T06:20:34.839Z,-0.23
2022-12-15T06:23:20.019Z,-0.20
2022-12-15T06:26:09.381Z,-0.19
2022-12-15T06:28:56.670Z,-0.19
2022-12-15T06:31:42.185Z,-0.17
2022-12-15T06:34:28.248Z,-0.19
2022-12-15T06:37:13.694Z,-0.16
2022-12-15T06:40:00.284Z,-0.15
2022-12-15T06:42:45.151Z,-0.15
2022-12-15T06:45:30.149Z,-0.14
2022-12-15T06:48:15.213Z,-0.11
2022-12-15T06:51:04.952Z,-0.10
2022-12-15T06:53:57.346Z,-0.16
2022-12-15T06:56:43.772Z,-0.14
2022-12-15T06:59:55.625Z,-0.07
2022-12-15T07:02:43.853Z,-0.14
2022-12-15T07:05:35.543Z,-0.09
2022-12-15T07:08:24.391Z,-0.04
2022-12-15T07:11:15.975Z,-0.02
2022-12-15T07:14:01.324Z,-0.04
2022-12-15T07:16:46.356Z,-0.03
2022-12-15T07:19:34.117Z,0.05
2022-12-15T07:22:21.333Z,0.05
2022-12-15T07:25:09.023Z,0.05
2022-12-15T07:28:25.607Z,0.06
2022-12-15T07:31:11.800Z,0.09
2022-12-15T07:33:56.908Z,0.12
2022-12-15T07:36:47.044Z,0.13
2022-12-15T07:39:34.761Z,0.12
2022-12-15T07:42:19.879Z,0.14
2022-12-15T07:45:06.982Z,0.19
2022-12-15T07:47:54.505Z,0.19
2022-12-15T07:50:39.566Z,0.21
2022-12-15T07:53:34.228Z,0.20
2022-12-15T07:56:20.982Z,0.24
2022-12-15T07:59:32.094Z,0.18
2022-12-15T08:02:17.455Z,0.28
2022-12-15T08:05:02.659Z,0.35
2022-12-15T08:08:30.815Z,0.37
2022-12-15T08:11:36.627Z,0.31
2022-12-15T08:14:22.312Z,0.39
2022-12-15T08:17:07.463Z,0.47
2022-12-15T08:19:55.810Z,0.51
2022-12-15T08:23:21.425Z,0.50
2022-12-15T08:31:38.330Z,0.48
2022-12-15T08:34:59.753Z,0.66
2022-12-15T08:38:12.853Z,0.78
2022-12-15T08:41:58.296Z,0.93
2022-12-15T08:44:44.536Z,0.98
2022-12-15T08:47:29.984Z,1.03
2022-12-15T08:50:16.089Z,1.10
2022-12-15T08:53:30.286Z,1.11
2022-12-15T08:56:18.879Z,1.14
2022-12-15T08:59:04.130Z,1.19
2022-12-15T09:01:48.858Z,1.22
2022-12-15T09:04:33.939Z,1.23
2022-12-15T09:07:18.738Z,1.23
2022-12-15T09:10:03.638Z,1.26
2022-12-15T09:12:49.121Z,1.27
2022-12-15T09:16:07.845Z,1.29
2022-12-15T09:18:42.280Z,1.35
2022-12-15T09:21:29.549Z,1.31
2022-12-15T09:24:20.610Z,1.34
2022-12-15T09:27:09.975Z,1.34
2022-12-15T09:29:55.071Z,1.35
2022-12-15T09:32:39.909Z,1.38
2022-12-15T09:35:28.591Z,1.34
2022-12-15T09:38:14.944Z,1.40
2022-12-15T09:41:28.898Z,1.43
2022-12-15T09:44:19.886Z,1.46
2022-12-15T09:48:06.080Z,1.48
2022-12-15T09:50:54.328Z,1.50
2022-12-15T09:53:56.025Z,1.51
2022-12-15T09:56:52.692Z,1.58
2022-12-15T09:59:49.339Z,1.59
2022-12-15T10:03:00.798Z,1.60
2022-12-15T10:12:36.869Z,1.69
2022-12-15T10:15:35.672Z,1.69
2022-12-15T10:18:33.584Z,1.63
2022-12-15T10:21:45.757Z,1.66
2022-12-15T10:25:16.460Z,1.70
2022-12-15T10:28:32.470Z,1.79
2022-12-15T10:31:35.420Z,1.74
2022-12-15T10:34:35.894Z,1.78
2022-12-15T10:37:21.118Z,1.81
2022-12-15T10:40:06.851Z,1.79
2022-12-15T10:42:51.792Z,1.72
2022-12-15T10:49:42.131Z,1.62
2022-12-15T10:52:35.293Z,1.63
2022-12-15T10:55:42.650Z,1.60
2022-12-15T10:58:27.917Z,1.57
2022-12-15T11:01:19.511Z,1.50
2022-12-15T11:08:16.858Z,1.46
2022-12-15T11:12:21.029Z,1.47
2022-12-15T11:15:36.840Z,1.41
2022-12-15T11:18:24.661Z,1.48
2022-12-15T11:21:34.632Z,1.49
2022-12-15T11:24:34.862Z,1.45
2022-12-15T11:28:03.431Z,1.47
2022-12-15T11:31:00.574Z,1.51
2022-12-15T11:33:46.068Z,1.44
2022-12-15T11:36:52.248Z,1.58
2022-12-15T11:40:00.517Z,1.61
2022-12-15T11:43:13.159Z,1.54
2022-12-15T11:46:13.125Z,1.55
2022-12-15T11:49:13.496Z,1.56
2022-12-15T11:52:22.862Z,1.57
2022-12-15T11:55:41.480Z,1.54
2022-12-15T11:58:41.833Z,1.58
2022-12-15T12:01:55.405Z,1.51
2022-12-15T12:04:50.858Z,1.53
2022-12-15T12:07:47.684Z,1.53
2022-12-15T12:10:52.948Z,1.54
2022-12-15T12:14:09.653Z,1.60
2022-12-15T12:17:20.570Z,1.59
2022-12-15T12:20:14.333Z,1.63
2022-12-15T12:23:02.090Z,1.65
2022-12-15T12:26:03.440Z,1.63
2022-12-15T12:28:51.725Z,1.59
2022-12-15T12:32:03.843Z,1.54
2022-12-15T12:35:31.368Z,1.56
2022-12-15T12:38:09.863Z,1.50
2022-12-15T12:41:15.082Z,1.45
2022-12-15T12:44:20.049Z,1.39
2022-12-15T12:47:14.686Z,1.35
2022-12-15T12:50:21.115Z,1.34
2022-12-15T12:53:24.884Z,1.30
2022-12-15T12:56:40.375Z,1.31
2022-12-15T12:59:28.204Z,1.29
2022-12-15T13:02:25.277Z,1.24
2022-12-15T13:05:45.258Z,1.20
2022-12-15T13:08:51.390Z,1.19
2022-12-15T13:11:50.622Z,1.12
2022-12-15T13:14:38.457Z,1.08
2022-12-15T13:17:32.087Z,1.03
2022-12-15T13:20:28.039Z,0.97
2022-12-15T13:23:21.721Z,0.98
2022-12-15T13:26:06.782Z,0.95
2022-12-15T13:28:51.819Z,0.94
2022-12-15T13:31:49.000Z,0.90
2022-12-15T13:34:38.416Z,0.86
2022-12-15T13:37:59.526Z,0.85
2022-12-15T13:40:47.542Z,0.81
2022-12-15T13:43:46.190Z,0.79
2022-12-15T13:46:35.030Z,0.77
2022-12-15T13:49:32.603Z,0.74
2022-12-15T13:53:08.115Z,0.72
2022-12-15T13:55:53.029Z,0.67
2022-12-15T13:58:43.821Z,0.63
2022-12-15T14:01:32.829Z,0.62
2022-12-15T14:04:20.752Z,0.57
2022-12-15T14:07:05.977Z,0.54
2022-12-15T14:09:50.598Z,0.51
2022-12-15T14:12:38.614Z,0.50
2022-12-15T14:15:29.400Z,0.47
2022-12-15T14:18:27.991Z,0.46
2022-12-15T14:21:20.146Z,0.43
2022-12-15T14:27:29.952Z,0.40
2022-12-15T14:30:21.880Z,0.40
2022-12-15T14:33:15.495Z,0.39
2022-12-15T14:36:04.126Z,0.39
2022-12-15T14:38:59.876Z,0.37
2022-12-15T14:41:48.819Z,0.38
2022-12-15T14:44:39.136Z,0.35
2022-12-15T14:47:35.265Z,0.32
2022-12-15T14:50:25.287Z,0.31
2022-12-15T14:53:17.249Z,0.26
2022-12-15T14:56:30.940Z,0.22
2022-12-15T14:59:20.425Z,0.14
2022-12-15T15:02:08.761Z,0.10
2022-12-15T15:05:06.814Z,0.06
2022-12-15T15:07:56.042Z,0.09
2022-12-15T15:10:41.745Z,0.07
2022-12-15T15:13:39.962Z,0.12
2022-12-15T15:16:26.454Z,0.11
2022-12-15T15:19:21.293Z,0.09
2022-12-15T15:22:12.424Z,0.09
2022-12-15T15:24:57.496Z,0.11
2022-12-15T15:27:42.377Z,0.12
2022-12-15T15:30:27.306Z,0.12
2022-12-15T15:33:13.215Z,0.10
2022-12-15T15:36:00.247Z,0.11
2022-12-15T15:38:46.458Z,0.11
2022-12-15T15:41:33.179Z,0.10
2022-12-15T15:44:17.855Z,0.11
2022-12-15T15:47:03.933Z,0.10
2022-12-15T15:49:49.830Z,0.10
2022-12-15T15:52:34.915Z,0.07
2022-12-15T15:55:24.449Z,0.07
2022-12-15T15:58:13.022Z,0.03
2022-12-15T16:00:58.457Z,0.02
2022-12-15T16:03:43.539Z,0.01
2022-12-15T16:06:28.048Z,0.00
2022-12-15T16:09:14.551Z,-0.05
2022-12-15T16:11:59.323Z,-0.09
2022-12-15T16:14:43.966Z,-0.13
2022-12-15T16:17:28.792Z,-0.20
2022-12-15T16:20:14.581Z,-0.21
2022-12-15T16:23:02.907Z,-0.26
2022-12-15T16:25:57.563Z,-0.31
2022-12-15T16:28:42.589Z,-0.35
2022-12-15T16:31:32.943Z,-0.40
2022-12-15T16:34:24.076Z,-0.45
2022-12-15T16:37:26.269Z,-0.45
2022-12-15T16:40:26.125Z,-0.46
2022-12-15T16:43:21.948Z,-0.51
2022-12-15T16:46:06.890Z,-0.52
2022-12-15T16:48:52.000Z,-0.58
2022-12-15T16:51:40.241Z,-0.59
2022-12-15T16:54:30.033Z,-0.60
2022-12-15T16:57:14.946Z,-0.54
2022-12-15T17:00:01.310Z,-0.50
2022-12-15T17:02:46.637Z,-0.53
2022-12-15T17:05:34.161Z,-0.49
2022-12-15T17:08:27.113Z,-0.48
2022-12-15T17:11:25.341Z,-0.44
2022-12-15T17:14:10.919Z,-0.41
2022-12-15T17:16:55.932Z,-0.40
2022-12-15T17:19:52.597Z,-0.41
2022-12-15T17:22:52.007Z,-0.38
2022-12-15T17:26:17.213Z,-0.37
2022-12-15T17:28:45.995Z,-0.34
2022-12-15T17:31:35.772Z,-0.34
2022-12-15T17:34:30.645Z,-0.28
2022-12-15T17:37:16.906Z,-0.29
2022-12-15T17:40:02.695Z,-0.31
2022-12-15T17:42:48.808Z,-0.35
2022-12-15T17:45:34.649Z,-0.41
2022-12-15T17:48:25.124Z,-0.44
2022-12-15T17:51:15.593Z,-0.55
2022-12-15T17:54:03.276Z,-0.75
2022-12-15T17:56:49.844Z,-0.94
2022-12-15T17:59:36.238Z,-1.05
2022-12-15T18:02:21.648Z,-1.26
2022-12-15T18:05:07.723Z,-1.43
2022-12-15T18:07:56.249Z,-1.62
2022-12-15T18:10:41.657Z,-1.65
2022-12-15T18:13:35.072Z,-1.65
2022-12-15T18:16:21.896Z,-1.58
2022-12-15T18:19:07.176Z,-1.46
2022-12-15T18:21:52.219Z,-1.33
2022-12-15T18:24:37.615Z,-1.14
2022-12-15T18:27:26.294Z,-0.99
2022-12-15T18:30:18.980Z,-0.90
2022-12-15T18:33:04.767Z,-0.85
2022-12-15T18:35:52.097Z,-0.80
2022-12-15T18:38:37.432Z,-0.81
2022-12-15T18:41:23.860Z,-0.81
2022-12-15T18:44:29.582Z,-0.86
2022-12-15T18:47:19.330Z,-0.87
2022-12-15T18:50:11.627Z,-0.89
2022-12-15T18:53:05.313Z,-0.87
2022-12-15T18:55:52.217Z,-0.83
2022-12-15T18:58:39.156Z,-0.82
2022-12-15T19:01:24.568Z,-0.81
2022-12-15T19:04:13.715Z,-0.80
2022-12-15T19:07:06.395Z,-0.79
2022-12-15T19:09:53.613Z,-0.78
2022-12-15T19:12:39.344Z,-0.76
2022-12-15T19:15:26.336Z,-0.76
2022-12-15T19:18:39.389Z,-0.81
2022-12-15T19:21:48.937Z,-0.81
2022-12-15T19:24:53.874Z,-0.88
2022-12-15T19:27:43.796Z,-0.97
2022-12-15T19:30:41.667Z,-1.00
2022-12-15T19:33:29.451Z,-1.05
2022-12-15T19:36:19.253Z,-1.12
2022-12-15T19:39:13.339Z,-1.21
2022-12-15T19:45:00.274Z,-1.33
2022-12-15T19:47:50.841Z,-1.25
2022-12-15T19:50:38.142Z,-1.18
2022-12-15T19:53:36.550Z,-1.13
2022-12-15T19:56:23.538Z,-1.11
2022-12-15T19:59:21.813Z,-1.12
2022-12-15T20:02:14.958Z,-1.13
2022-12-15T20:05:02.540Z,-1.12
2022-12-15T20:07:52.840Z,-1.10
2022-12-15T20:10:38.517Z,-1.12
2022-12-15T20:13:26.015Z,-1.13
2022-12-15T20:16:11.007Z,-1.13
2022-12-15T20:18:59.577Z,-1.11
2022-12-15T20:21:44.854Z,-1.08
2022-12-15T20:24:32.650Z,-1.03
2022-12-15T20:27:18.988Z,-1.01
2022-12-15T20:30:05.163Z,-0.99
2022-12-15T20:32:50.262Z,-1.02
2022-12-15T20:35:36.901Z,-0.99
2022-12-15T20:38:31.791Z,-0.98
2022-12-15T20:41:19.659Z,-0.96
2022-12-15T20:44:09.154Z,-0.96
2022-12-15T20:46:54.126Z,-0.94
2022-12-15T20:49:38.946Z,-0.95
2022-12-15T20:52:26.633Z,-0.94
2022-12-15T20:55:14.063Z,-0.98
2022-12-15T20:57:59.060Z,-0.95
2022-12-15T21:00:45.604Z,-0.99
2022-12-15T21:03:35.920Z,-0.99
2022-12-15T21:06:22.765Z,-1.00
2022-12-15T21:09:12.789Z,-0.96
2022-12-15T21:11:57.956Z,-0.98
2022-12-15T21:14:42.951Z,-0.98
2022-12-15T21:17:28.535Z,-0.97
2022-12-15T21:20:13.739Z,-0.97
2022-12-15T21:22:58.548Z,-0.97
2022-12-15T21:25:43.427Z,-0.98
2022-12-15T21:28:28.415Z,-1.01
2022-12-15T21:31:14.938Z,-1.00
2022-12-15T21:33:59.924Z,-1.01
2022-12-15T21:36:46.778Z,-0.98
2022-12-15T21:39:34.809Z,-1.01
2022-12-15T21:42:20.684Z,-1.03
2022-12-15T21:45:14.115Z,-1.03
2022-12-15T21:48:17.606Z,-1.03
2022-12-15T21:51:03.173Z,-1.03
2022-12-15T21:53:47.771Z,-0.99
2022-12-15T21:56:33.010Z,-1.02
2022-12-15T21:59:22.542Z,-1.00
2022-12-15T22:02:24.892Z,-1.00
2022-12-15T22:05:19.818Z,-0.99
2022-12-15T22:08:21.498Z,-0.98
2022-12-15T22:11:32.130Z,-1.00
2022-12-15T22:14:43.266Z,-1.01
2022-12-15T22:17:28.289Z,-1.00
2022-12-15T22:20:21.837Z,-1.01
2022-12-15T22:23:06.634Z,-0.98
2022-12-15T22:25:55.353Z,-0.98
2022-12-15T22:28:40.101Z,-1.00
2022-12-15T22:31:25.102Z,-0.99
2022-12-15T22:34:18.853Z,-1.02
2022-12-15T22:37:03.614Z,-1.00
2022-12-15T22:39:53.224Z,-1.02
2022-12-15T22:42:43.574Z,-0.99
2022-12-15T22:45:28.255Z,-0.91
2022-12-15T22:48:14.871Z,-0.84
2022-12-15T22:51:04.337Z,-0.82
2022-12-15T22:53:49.368Z,-0.83
2022-12-15T22:56:39.284Z,-0.80
2022-12-15T22:59:31.696Z,-0.80
2022-12-15T23:02:16.928Z,-0.78
2022-12-15T23:05:03.441Z,-0.80
2022-12-15T23:07:47.990Z,-0.80
2022-12-15T23:10:51.460Z,-0.81
2022-12-15T23:13:36.485Z,-0.83
2022-12-15T23:16:21.916Z,-0.85
2022-12-15T23:19:08.345Z,-0.85
2022-12-15T23:21:53.411Z,-0.89
2022-12-15T23:24:38.600Z,-0.89
2022-12-15T23:27:23.746Z,-0.92
2022-12-15T23:30:08.651Z,-0.92
2022-12-15T23:32:55.460Z,-0.95
2022-12-15T23:35:40.449Z,-0.92
2022-12-15T23:38:26.707Z,-0.93
2022-12-15T23:41:16.478Z,-0.94
2022-12-15T23:44:01.128Z,-0.92
2022-12-15T23:46:46.233Z,-0.92
2022-12-15T23:49:31.057Z,-0.93
2022-12-15T23:52:17.792Z,-0.91
2022-12-15T23:55:02.947Z,-0.92
2022-12-15T23:57:47.522Z,-0.94
